Time;durP1;ratioP1;P1;durP2;ratioP2;P2;SDS_P1;SDS_P2;PMS_P1;PMS_P2;Temp;Humidity;BMP_temperature;BMP_pressure;BME280_temperature;BME280_humidity;BME280_pressure;Samples;Min_cycle;Max_cycle;Signal;HPM_P1;HPM_P2
2023/12/11 00:02:09;;;;;;;30.23;12.13;;;-4.90;99.90;;;;;;4974104;28;20200;-92
2023/12/11 00:04:37;;;;;;;27.00;11.50;;;-4.90;99.90;;;;;;4975368;28;20219;-94
2023/12/11 00:07:05;;;;;;;26.77;10.82;;;-4.80;99.90;;;;;;4974804;28;20192;-94
2023/12/11 00:09:32;;;;;;;26.70;10.35;;;-4.90;99.90;;;;;;4975432;28;20211;-94
2023/12/11 00:12:00;;;;;;;27.90;11.57;;;-4.90;99.90;;;;;;4974320;28;20184;-94
2023/12/11 00:14:28;;;;;;;29.23;11.85;;;-4.90;99.90;;;;;;4957865;28;20207;-93
2023/12/11 00:16:56;;;;;;;28.70;11.77;;;-4.80;99.90;;;;;;4942732;28;20203;-93
2023/12/11 00:19:23;;;;;;;28.92;10.88;;;-4.70;99.90;;;;;;4974469;28;20308;-95
2023/12/11 00:21:51;;;;;;;28.27;11.90;;;-4.80;99.90;;;;;;4973821;28;20283;-94
2023/12/11 00:24:19;;;;;;;27.05;10.35;;;-4.80;99.90;;;;;;4942232;28;20204;-94
2023/12/11 00:26:47;;;;;;;23.20;9.63;;;-4.80;99.90;;;;;;4973027;28;20223;-95
2023/12/11 00:29:15;;;;;;;27.60;11.90;;;-4.80;99.90;;;;;;4972369;28;20188;-94
2023/12/11 00:31:42;;;;;;;29.27;12.07;;;-4.80;99.90;;;;;;4941439;28;20207;-93
2023/12/11 00:34:10;;;;;;;32.63;12.93;;;-4.90;99.90;;;;;;4973011;28;20279;-93
2023/12/11 00:36:38;;;;;;;31.67;12.65;;;-4.90;99.90;;;;;;4956934;28;20196;-95
2023/12/11 00:39:05;;;;;;;28.05;12.02;;;-4.90;99.90;;;;;;4956857;28;20227;-94
2023/12/11 00:41:33;;;;;;;29.33;13.07;;;-4.80;99.90;;;;;;4972442;28;20244;-94
2023/12/11 00:44:01;;;;;;;30.35;11.48;;;-4.80;99.90;;;;;;4956341;28;20212;-94
2023/12/11 00:46:28;;;;;;;31.00;12.05;;;-5.00;99.90;;;;;;4972151;28;20634;-91
2023/12/11 00:48:56;;;;;;;31.35;12.20;;;-5.10;99.90;;;;;;4940329;28;20191;-95
2023/12/11 00:51:24;;;;;;;27.05;11.23;;;-5.10;99.90;;;;;;4972863;28;20717;-95
2023/12/11 00:53:51;;;;;;;30.58;12.55;;;-5.00;99.90;;;;;;4957595;28;20196;-92
2023/12/11 00:56:19;;;;;;;26.08;11.15;;;-5.10;99.90;;;;;;4972668;28;20734;-94
2023/12/11 00:58:46;;;;;;;29.73;12.20;;;-5.10;99.90;;;;;;4972683;28;20200;-94
2023/12/11 01:01:14;;;;;;;31.83;11.93;;;-5.10;99.90;;;;;;4956213;28;20196;-92
2023/12/11 01:03:42;;;;;;;27.00;11.65;;;-5.00;99.90;;;;;;4971246;28;20280;-91
2023/12/11 01:06:09;;;;;;;26.13;11.32;;;-5.00;99.90;;;;;;4970885;28;20316;-94
2023/12/11 01:08:39;;;;;;;24.98;10.55;;;-5.10;99.90;;;;;;4940066;28;20188;-95
2023/12/11 01:11:08;;;;;;;29.98;11.35;;;-5.20;99.90;;;;;;4971756;28;20200;-95
2023/12/11 01:13:36;;;;;;;31.42;11.85;;;-5.30;99.90;;;;;;4971962;28;20215;-95
2023/12/11 01:16:04;;;;;;;28.92;11.98;;;-5.10;99.90;;;;;;4941127;28;20204;-94
2023/12/11 01:18:32;;;;;;;29.38;11.05;;;-5.10;99.90;;;;;;4972219;28;20200;-92
2023/12/11 01:21:00;;;;;;;30.17;13.07;;;-5.20;99.90;;;;;;4971714;28;20196;-91
2023/12/11 01:23:27;;;;;;;29.08;12.15;;;-5.30;99.90;;;;;;4940125;28;20188;-92
2023/12/11 01:25:55;;;;;;;32.92;11.68;;;-5.30;99.90;;;;;;4975125;28;20215;-92
2023/12/11 01:28:22;;;;;;;26.52;10.55;;;-5.10;99.90;;;;;;4976888;28;20195;-94
2023/12/11 01:30:50;;;;;;;28.25;11.90;;;-5.10;99.90;;;;;;4944517;28;20851;-94
2023/12/11 01:33:18;;;;;;;27.13;10.85;;;-5.20;99.90;;;;;;4975146;28;20238;-93
2023/12/11 01:35:45;;;;;;;24.90;10.10;;;-5.30;99.90;;;;;;4959314;28;20199;-93
2023/12/11 01:38:13;;;;;;;31.25;10.80;;;-5.30;99.90;;;;;;4943167;28;20651;-92
2023/12/11 01:40:40;;;;;;;24.70;10.65;;;-5.40;99.90;;;;;;4974958;28;20283;-89
2023/12/11 01:43:15;;;;;;;26.42;10.43;;;-5.30;99.90;;;;;;4943795;28;20207;-93
2023/12/11 01:46:13;;;;;;;29.15;9.98;;;-5.20;99.90;;;;;;4960200;28;20208;-94
2023/12/11 01:48:41;;;;;;;27.95;10.63;;;-5.20;99.90;;;;;;4959822;28;20194;-92
2023/12/11 01:51:10;;;;;;;23.92;10.63;;;-5.10;99.90;;;;;;4976847;28;20280;-94
2023/12/11 01:53:39;;;;;;;30.52;12.40;;;-5.10;99.90;;;;;;4975828;28;20737;-93
2023/12/11 01:56:08;;;;;;;28.83;10.48;;;-5.20;99.90;;;;;;4975694;28;20436;-93
2023/12/11 01:58:36;;;;;;;30.55;10.48;;;-5.20;99.90;;;;;;4974295;28;20416;-94
2023/12/11 02:01:04;;;;;;;28.33;10.85;;;-5.30;99.90;;;;;;4975492;28;20230;-94
2023/12/11 02:03:31;;;;;;;28.98;10.38;;;-5.30;99.90;;;;;;4975482;28;20274;-94
2023/12/11 02:06:00;;;;;;;32.90;12.38;;;-5.30;99.90;;;;;;4943832;28;20543;-93
2023/12/11 02:08:28;;;;;;;24.67;10.47;;;-5.40;99.90;;;;;;4974678;28;20223;-93
2023/12/11 02:10:56;;;;;;;28.27;12.02;;;-5.30;99.90;;;;;;4958818;28;20654;-92
2023/12/11 02:13:23;;;;;;;33.03;11.13;;;-5.40;99.90;;;;;;4974891;28;20191;-93
2023/12/11 02:15:51;;;;;;;30.92;10.85;;;-5.50;99.90;;;;;;4941726;28;20713;-93
2023/12/11 02:18:19;;;;;;;29.05;10.80;;;-5.30;99.90;;;;;;4973741;28;20192;-93
2023/12/11 02:20:47;;;;;;;26.35;10.23;;;-5.30;99.90;;;;;;4973801;28;20260;-93
2023/12/11 02:23:26;;;;;;;30.38;11.35;;;-5.30;99.90;;;;;;4942958;28;20197;-92
2023/12/11 02:26:17;;;;;;;26.48;11.23;;;-5.30;99.90;;;;;;4942771;28;20208;-93
2023/12/11 02:28:45;;;;;;;27.30;10.70;;;-5.40;99.90;;;;;;4974902;28;20191;-93
2023/12/11 02:31:13;;;;;;;31.95;11.45;;;-5.30;99.90;;;;;;4974416;28;20672;-93
2023/12/11 02:33:40;;;;;;;28.33;11.65;;;-5.40;99.90;;;;;;4974148;28;20726;-94
2023/12/11 02:36:08;;;;;;;31.95;11.63;;;-5.50;99.90;;;;;;4957006;28;20215;-94
2023/12/11 02:38:36;;;;;;;29.40;10.07;;;-5.40;99.90;;;;;;4973802;28;20191;-93
2023/12/11 02:41:04;;;;;;;31.70;12.55;;;-5.40;99.90;;;;;;4973833;28;20251;-93
2023/12/11 02:43:31;;;;;;;32.80;12.07;;;-5.40;99.90;;;;;;4957874;28;20191;-93
2023/12/11 02:45:59;;;;;;;31.40;11.80;;;-5.50;99.90;;;;;;4973775;28;20513;-93
2023/12/11 02:48:26;;;;;;;39.40;13.15;;;-5.40;99.90;;;;;;4941417;28;20211;-94
2023/12/11 02:50:54;;;;;;;34.22;12.98;;;-5.50;99.90;;;;;;4973554;28;20247;-93
2023/12/11 02:53:22;;;;;;;30.38;12.70;;;-5.40;99.90;;;;;;4970619;28;20196;-92
2023/12/11 02:55:49;;;;;;;31.73;12.45;;;-5.30;99.90;;;;;;4954321;29;20691;-93
2023/12/11 02:58:17;;;;;;;33.70;12.00;;;-5.30;99.90;;;;;;4937739;28;20189;-93
2023/12/11 03:00:44;;;;;;;36.45;12.27;;;-5.40;99.90;;;;;;4952992;29;20204;-93
2023/12/11 03:03:12;;;;;;;31.92;12.05;;;-5.50;99.90;;;;;;4921473;29;20291;-93
2023/12/11 03:05:40;;;;;;;33.90;11.73;;;-5.50;99.90;;;;;;4952519;29;20220;-93
2023/12/11 03:08:07;;;;;;;32.08;11.95;;;-5.50;99.90;;;;;;4953328;28;20206;-94
2023/12/11 03:10:35;;;;;;;30.83;11.13;;;-5.20;99.90;;;;;;4936979;29;20189;-95
2023/12/11 03:13:02;;;;;;;34.80;13.50;;;-5.40;99.90;;;;;;4937065;28;20212;-93
2023/12/11 03:15:31;;;;;;;42.05;12.40;;;-5.50;99.90;;;;;;4937405;29;20215;-94
2023/12/11 03:17:59;;;;;;;31.27;11.90;;;-5.40;99.90;;;;;;4921836;29;20184;-94
2023/12/11 03:20:27;;;;;;;29.42;11.60;;;-5.30;99.90;;;;;;4938072;29;20192;-93
2023/12/11 03:22:55;;;;;;;34.15;13.10;;;-5.40;99.90;;;;;;4938121;28;20203;-93
2023/12/11 03:25:23;;;;;;;32.95;12.30;;;-5.50;99.90;;;;;;4952911;29;20925;-93
2023/12/11 03:27:50;;;;;;;30.08;12.02;;;-5.40;99.90;;;;;;4937327;28;20551;-93
2023/12/11 03:30:17;;;;;;;41.72;13.25;;;-5.20;99.90;;;;;;4954006;29;20195;-94
2023/12/11 03:32:45;;;;;;;28.23;12.07;;;-5.30;99.90;;;;;;4953114;29;20287;-95
2023/12/11 03:35:12;;;;;;;29.90;11.65;;;-5.30;99.90;;;;;;4953757;28;20279;-93
2023/12/11 03:37:40;;;;;;;31.08;12.73;;;-5.40;99.90;;;;;;4953631;29;20207;-94
2023/12/11 03:40:08;;;;;;;37.78;12.77;;;-5.40;99.90;;;;;;4937512;28;20200;-92
2023/12/11 03:42:36;;;;;;;32.85;13.07;;;-5.40;99.90;;;;;;4933833;28;20232;-94
2023/12/11 03:45:04;;;;;;;31.00;10.97;;;-5.40;99.90;;;;;;4950148;29;20224;-94
2023/12/11 03:47:31;;;;;;;31.95;11.73;;;-5.40;99.90;;;;;;4917972;29;20213;-93
2023/12/11 03:49:59;;;;;;;29.90;11.63;;;-5.50;99.90;;;;;;4950469;29;20181;-94
2023/12/11 03:52:27;;;;;;;28.67;10.57;;;-5.60;99.90;;;;;;4934331;29;20181;-94
2023/12/11 03:54:54;;;;;;;29.42;11.80;;;-5.60;99.90;;;;;;4936576;29;20332;-93
2023/12/11 03:57:22;;;;;;;32.58;12.27;;;-5.60;99.90;;;;;;4936886;29;20765;-93
2023/12/11 03:59:49;;;;;;;33.95;13.73;;;-5.50;99.90;;;;;;4953209;29;20739;-93
2023/12/11 04:02:17;;;;;;;33.50;11.63;;;-5.60;99.90;;;;;;4957610;28;20655;-94
2023/12/11 04:04:44;;;;;;;35.15;12.93;;;-5.60;99.90;;;;;;4953215;28;20228;-92
2023/12/11 04:07:12;;;;;;;28.40;11.10;;;-5.40;99.90;;;;;;4953423;29;20189;-93
2023/12/11 04:09:41;;;;;;;31.70;11.68;;;-5.50;99.90;;;;;;4969223;28;20189;-94
2023/12/11 04:12:08;;;;;;;36.05;11.55;;;-5.50;99.90;;;;;;4969127;28;20196;-94
2023/12/11 04:14:36;;;;;;;27.52;10.40;;;-5.50;99.90;;;;;;4969167;28;20663;-93
2023/12/11 04:17:04;;;;;;;30.15;10.75;;;-5.60;99.90;;;;;;4953229;28;20212;-93
2023/12/11 04:19:31;;;;;;;23.60;9.10;;;-5.50;99.90;;;;;;4969200;28;20193;-94
2023/12/11 04:21:59;;;;;;;26.65;9.40;;;-5.50;99.90;;;;;;4953193;29;20202;-93
2023/12/11 04:24:26;;;;;;;25.05;10.55;;;-5.50;99.90;;;;;;4968764;28;20192;-93
2023/12/11 04:26:54;;;;;;;25.40;8.73;;;-5.50;99.90;;;;;;4952685;28;20209;-93
2023/12/11 04:29:21;;;;;;;22.88;8.80;;;-5.50;99.90;;;;;;4969025;28;20196;-93
2023/12/11 04:31:49;;;;;;;24.17;9.52;;;-5.40;99.90;;;;;;4968503;28;20192;-94
2023/12/11 04:34:16;;;;;;;22.63;8.73;;;-5.40;99.90;;;;;;4968325;28;20193;-94
2023/12/11 04:36:44;;;;;;;24.33;8.52;;;-5.30;99.90;;;;;;4968327;28;20600;-94
2023/12/11 04:39:12;;;;;;;26.52;9.65;;;-5.30;99.90;;;;;;4968141;28;20243;-93
2023/12/11 04:41:40;;;;;;;22.73;7.65;;;-5.40;99.90;;;;;;4967524;28;20256;-93
2023/12/11 04:44:07;;;;;;;20.98;8.35;;;-5.50;99.90;;;;;;4967569;28;20244;-92
2023/12/11 04:46:35;;;;;;;23.35;8.32;;;-5.50;99.90;;;;;;4967255;28;20227;-94
2023/12/11 04:49:02;;;;;;;23.02;9.23;;;-5.50;99.90;;;;;;4968341;28;20197;-93
2023/12/11 04:51:30;;;;;;;23.02;8.95;;;-5.40;99.90;;;;;;4967651;28;20201;-93
2023/12/11 04:53:58;;;;;;;24.55;9.38;;;-5.50;99.90;;;;;;4967280;28;20247;-93
2023/12/11 04:56:26;;;;;;;20.98;9.38;;;-5.50;99.90;;;;;;4967222;28;20200;-94
2023/12/11 04:58:54;;;;;;;20.52;9.07;;;-5.50;99.90;;;;;;4967573;28;20829;-94
2023/12/11 05:01:25;;;;;;;19.45;8.55;;;-5.40;99.90;;;;;;4935924;29;20224;-93
2023/12/11 05:03:53;;;;;;;23.88;9.38;;;-5.50;99.90;;;;;;4935367;29;20647;-94
2023/12/11 05:06:21;;;;;;;24.48;9.10;;;-5.40;99.90;;;;;;4920026;29;20213;-94
2023/12/11 05:08:48;;;;;;;25.98;8.68;;;-5.30;99.90;;;;;;4935427;29;20194;-93
2023/12/11 05:11:16;;;;;;;20.27;7.82;;;-5.40;99.90;;;;;;4935868;29;20303;-94
2023/12/11 05:13:44;;;;;;;27.52;9.15;;;-5.50;99.90;;;;;;4936288;29;20205;-94
2023/12/11 05:16:11;;;;;;;21.13;8.45;;;-5.50;99.90;;;;;;4920822;29;20190;-94
2023/12/11 05:18:39;;;;;;;20.55;8.23;;;-5.50;99.90;;;;;;4937052;29;20189;-94
2023/12/11 05:21:09;;;;;;;22.40;8.57;;;-5.50;99.90;;;;;;4920993;29;20196;-94
2023/12/11 05:23:37;;;;;;;18.92;7.63;;;-5.50;99.90;;;;;;4921321;29;20205;-93
2023/12/11 05:26:05;;;;;;;28.45;9.43;;;-5.50;99.90;;;;;;4952560;29;20232;-94
2023/12/11 05:28:32;;;;;;;23.80;8.48;;;-5.50;99.90;;;;;;4937105;29;20197;-93
2023/12/11 05:31:00;;;;;;;20.60;7.45;;;-5.50;99.90;;;;;;4936600;29;20739;-94
2023/12/11 05:33:28;;;;;;;22.40;8.70;;;-5.40;99.90;;;;;;4920767;29;20997;-94
2023/12/11 05:35:56;;;;;;;19.00;7.75;;;-5.50;99.90;;;;;;4919175;29;20204;-92
2023/12/11 05:38:24;;;;;;;20.40;8.45;;;-5.60;99.90;;;;;;4919526;29;20204;-93
2023/12/11 05:40:52;;;;;;;20.52;9.15;;;-5.70;99.90;;;;;;4921553;29;20707;-92
2023/12/11 05:43:19;;;;;;;19.38;8.35;;;-5.60;99.90;;;;;;4925592;29;20196;-92
2023/12/11 05:45:47;;;;;;;20.60;8.18;;;-5.50;99.90;;;;;;4939565;29;20216;-93
2023/12/11 05:48:14;;;;;;;19.40;7.90;;;-5.50;99.90;;;;;;4955196;29;20199;-93
2023/12/11 05:50:42;;;;;;;20.27;9.05;;;-5.50;99.90;;;;;;4954969;28;20196;-93
2023/12/11 05:53:10;;;;;;;22.33;9.20;;;-5.60;99.90;;;;;;4925144;29;20197;-93
2023/12/11 05:55:37;;;;;;;23.33;9.35;;;-5.60;99.90;;;;;;4923531;29;20197;-93
2023/12/11 05:58:05;;;;;;;22.52;8.10;;;-5.70;99.90;;;;;;4942218;28;20223;-93
2023/12/11 06:00:32;;;;;;;21.35;9.55;;;-5.70;99.90;;;;;;4967148;28;20201;-93
2023/12/11 06:03:00;;;;;;;21.73;8.20;;;-5.50;99.90;;;;;;4925948;28;20283;-92
2023/12/11 06:05:28;;;;;;;23.70;8.88;;;-5.50;99.90;;;;;;4941732;28;20761;-94
2023/12/11 06:07:55;;;;;;;21.52;7.88;;;-5.60;99.90;;;;;;4925517;28;20197;-93
2023/12/11 06:10:23;;;;;;;23.35;8.52;;;-5.60;99.90;;;;;;4927418;29;20196;-92
2023/12/11 06:12:50;;;;;;;24.80;8.45;;;-5.70;99.90;;;;;;4924055;29;20651;-94
2023/12/11 06:15:18;;;;;;;24.65;8.90;;;-5.60;99.90;;;;;;4925031;29;20230;-92
2023/12/11 06:17:46;;;;;;;21.17;8.85;;;-5.60;99.90;;;;;;4925213;29;20195;-92
2023/12/11 06:20:14;;;;;;;27.10;9.20;;;-5.50;99.90;;;;;;4940192;29;20196;-93
2023/12/11 06:22:41;;;;;;;19.98;8.45;;;-5.50;99.90;;;;;;4939624;28;20567;-93
2023/12/11 06:25:09;;;;;;;26.45;8.40;;;-5.60;99.90;;;;;;4924085;29;20196;-93
2023/12/11 06:27:37;;;;;;;22.55;7.97;;;-5.50;99.90;;;;;;4922537;29;20244;-92
2023/12/11 06:30:07;;;;;;;18.77;7.88;;;-5.50;99.90;;;;;;4921938;29;20224;-92
2023/12/11 06:32:34;;;;;;;23.45;8.18;;;-5.50;99.90;;;;;;4928059;29;20571;-92
2023/12/11 06:35:03;;;;;;;17.30;7.45;;;-5.50;99.90;;;;;;4939276;29;20196;-94
2023/12/11 06:37:30;;;;;;;24.40;8.27;;;-5.40;99.90;;;;;;4938424;29;20648;-92
2023/12/11 06:39:58;;;;;;;22.48;8.80;;;-5.50;99.90;;;;;;4922537;29;20672;-93
2023/12/11 06:42:26;;;;;;;19.73;7.80;;;-5.60;99.90;;;;;;4935368;29;20566;-93
2023/12/11 06:44:54;;;;;;;16.85;6.75;;;-5.60;99.90;;;;;;4935100;29;20193;-92
2023/12/11 06:47:21;;;;;;;18.77;7.65;;;-5.50;99.90;;;;;;4934835;29;20217;-93
2023/12/11 06:49:48;;;;;;;17.50;7.30;;;-5.50;99.90;;;;;;4919266;29;20190;-93
2023/12/11 06:52:16;;;;;;;23.80;8.50;;;-5.60;99.90;;;;;;4918344;29;20251;-92
2023/12/11 06:54:44;;;;;;;23.70;8.57;;;-5.40;99.90;;;;;;4917663;29;20212;-92
2023/12/11 06:57:11;;;;;;;20.15;6.97;;;-5.50;99.90;;;;;;4922276;29;20293;-93
2023/12/11 06:59:39;;;;;;;21.02;7.72;;;-5.50;99.90;;;;;;4950500;28;20213;-93
2023/12/11 07:02:06;;;;;;;22.40;8.40;;;-5.50;99.90;;;;;;4918697;29;20747;-94
2023/12/11 07:04:34;;;;;;;20.95;7.65;;;-5.40;99.90;;;;;;4918830;29;20201;-92
2023/12/11 07:07:03;;;;;;;22.20;8.02;;;-5.40;99.90;;;;;;4917781;29;20293;-92
2023/12/11 07:09:31;;;;;;;20.30;8.13;;;-5.50;99.90;;;;;;4918033;29;20289;-92
2023/12/11 07:11:59;;;;;;;21.83;7.35;;;-5.50;99.90;;;;;;4918665;29;20198;-93
2023/12/11 07:14:26;;;;;;;15.93;6.85;;;-5.40;99.90;;;;;;4918846;29;20193;-93
2023/12/11 07:16:53;;;;;;;18.90;7.50;;;-5.40;99.90;;;;;;4918170;29;20660;-91
2023/12/11 07:19:21;;;;;;;19.38;7.28;;;-5.50;99.90;;;;;;4934453;29;20197;-93
2023/12/11 07:21:49;;;;;;;20.38;6.75;;;-5.30;99.90;;;;;;4933118;28;20197;-91
2023/12/11 07:24:17;;;;;;;18.25;7.00;;;-5.50;99.90;;;;;;4918198;29;20305;-92
2023/12/11 07:26:44;;;;;;;18.75;6.57;;;-5.60;99.90;;;;;;4918142;29;20292;-93
2023/12/11 07:29:12;;;;;;;20.65;6.43;;;-5.40;99.90;;;;;;4941715;28;20221;-92
2023/12/11 07:31:41;;;;;;;17.75;7.47;;;-5.40;99.90;;;;;;4951732;28;20580;-93
2023/12/11 07:34:08;;;;;;;16.55;5.95;;;-5.50;99.90;;;;;;4949833;28;20193;-93
2023/12/11 07:36:36;;;;;;;16.00;6.25;;;-5.50;99.90;;;;;;4961344;28;20205;-91
2023/12/11 07:39:04;;;;;;;16.65;6.50;;;-5.40;99.90;;;;;;4935754;29;20220;-92
2023/12/11 07:41:31;;;;;;;18.25;6.80;;;-5.40;99.90;;;;;;4933174;29;20229;-93
2023/12/11 07:43:59;;;;;;;18.90;7.38;;;-5.40;99.90;;;;;;4948800;28;20568;-92
2023/12/11 07:46:26;;;;;;;19.50;7.18;;;-5.40;99.90;;;;;;4918160;29;20228;-92
2023/12/11 07:48:54;;;;;;;19.65;7.45;;;-5.50;99.90;;;;;;4917758;29;20222;-92
2023/12/11 07:51:26;;;;;;;20.67;7.03;;;-5.60;99.90;;;;;;4921655;29;20185;-93
2023/12/11 07:53:58;;;;;;;20.40;6.47;;;-5.50;99.90;;;;;;4934951;29;20656;-92
2023/12/11 07:56:29;;;;;;;17.08;8.05;;;-5.40;99.90;;;;;;4949162;29;20269;-92
2023/12/11 07:58:57;;;;;;;16.15;6.45;;;-5.40;99.90;;;;;;4948954;29;20208;-93
2023/12/11 08:01:32;;;;;;;19.02;7.75;;;-5.50;99.90;;;;;;4949006;29;20207;-91
2023/12/11 08:04:01;;;;;;;18.05;6.35;;;-5.40;99.90;;;;;;4949262;29;20563;-92
2023/12/11 08:06:29;;;;;;;16.02;5.60;;;-5.50;99.90;;;;;;4949400;29;20573;-91
2023/12/11 08:08:57;;;;;;;13.15;6.22;;;-5.50;99.90;;;;;;4949002;29;20684;-93
2023/12/11 08:11:25;;;;;;;13.65;5.63;;;-5.50;99.90;;;;;;4947985;29;20197;-93
2023/12/11 08:13:54;;;;;;;16.88;7.30;;;-5.50;99.90;;;;;;4916650;29;20190;-92
2023/12/11 08:16:27;;;;;;;17.60;5.72;;;-5.40;99.90;;;;;;4917220;29;20190;-91
2023/12/11 08:18:55;;;;;;;16.83;6.55;;;-5.50;99.90;;;;;;4963046;28;20196;-92
2023/12/11 08:21:23;;;;;;;15.70;6.05;;;-5.50;99.90;;;;;;4951457;29;20196;-91
2023/12/11 08:23:51;;;;;;;18.05;7.18;;;-5.40;99.90;;;;;;4967025;28;20647;-93
2023/12/11 08:26:19;;;;;;;17.98;6.45;;;-5.30;99.90;;;;;;4952042;28;20216;-93
2023/12/11 08:28:48;;;;;;;12.45;4.95;;;-5.30;99.90;;;;;;4967816;28;20271;-93
2023/12/11 08:31:16;;;;;;;16.38;6.78;;;-5.40;99.90;;;;;;4951344;28;20930;-91
2023/12/11 08:33:43;;;;;;;18.98;6.13;;;-5.40;99.90;;;;;;4967445;28;20196;-95
2023/12/11 08:36:11;;;;;;;15.02;5.63;;;-5.40;99.90;;;;;;4955970;28;20197;-93
2023/12/11 08:38:39;;;;;;;19.00;6.93;;;-5.30;99.90;;;;;;4972198;28;20206;-93
2023/12/11 08:41:06;;;;;;;15.63;5.88;;;-5.30;99.90;;;;;;4955700;29;20607;-93
2023/12/11 08:43:34;;;;;;;11.10;5.03;;;-5.30;99.90;;;;;;4971118;28;20287;-93
2023/12/11 08:46:02;;;;;;;16.65;6.40;;;-5.30;99.90;;;;;;4956363;29;20670;-93
2023/12/11 08:48:30;;;;;;;13.90;5.97;;;-5.30;99.90;;;;;;4971555;28;20196;-93
2023/12/11 08:50:57;;;;;;;14.00;5.43;;;-5.30;99.90;;;;;;4956136;29;20197;-93
2023/12/11 08:53:25;;;;;;;14.55;5.22;;;-5.30;99.90;;;;;;4972338;28;20188;-92
2023/12/11 08:55:54;;;;;;;13.57;5.78;;;-5.30;99.90;;;;;;4971403;28;20201;-94
2023/12/11 08:58:23;;;;;;;13.40;4.93;;;-5.30;99.90;;;;;;4970569;28;20226;-93
2023/12/11 09:00:51;;;;;;;9.85;4.18;;;-5.20;99.90;;;;;;4949243;29;20232;-93
2023/12/11 09:03:20;;;;;;;12.18;5.15;;;-5.30;99.90;;;;;;4921432;29;20201;-92
2023/12/11 09:05:48;;;;;;;13.40;5.15;;;-5.30;99.90;;;;;;4922137;29;20204;-93
2023/12/11 09:08:16;;;;;;;11.55;5.10;;;-5.30;99.90;;;;;;4921849;29;20213;-93
2023/12/11 09:10:43;;;;;;;13.55;5.93;;;-5.30;99.90;;;;;;4920645;29;20194;-93
2023/12/11 09:13:11;;;;;;;13.50;5.30;;;-5.30;99.90;;;;;;4920332;29;20193;-93
2023/12/11 09:15:39;;;;;;;14.32;5.75;;;-5.30;99.90;;;;;;4936026;29;20201;-93
2023/12/11 09:18:08;;;;;;;16.85;6.53;;;-5.30;99.90;;;;;;4920631;29;20193;-94
2023/12/11 09:20:36;;;;;;;17.45;6.15;;;-5.30;99.90;;;;;;4936242;29;20656;-94
2023/12/11 09:23:03;;;;;;;14.05;5.20;;;-5.20;99.90;;;;;;4919394;29;20932;-94
2023/12/11 09:25:31;;;;;;;12.30;5.40;;;-5.20;99.90;;;;;;4919462;29;20197;-94
2023/12/11 09:28:00;;;;;;;13.35;5.53;;;-5.30;99.90;;;;;;4921660;29;20336;-94
2023/12/11 09:30:28;;;;;;;12.02;5.05;;;-5.20;99.90;;;;;;4920516;29;20192;-94
2023/12/11 09:32:56;;;;;;;14.23;5.63;;;-5.10;99.90;;;;;;4919466;29;20193;-94
2023/12/11 09:35:23;;;;;;;14.35;5.55;;;-5.10;99.90;;;;;;4919347;29;20284;-94
2023/12/11 09:37:51;;;;;;;16.48;5.97;;;-5.20;99.90;;;;;;4935241;29;20193;-95
2023/12/11 09:40:20;;;;;;;11.70;5.40;;;-5.20;99.90;;;;;;4936820;29;20228;-93
2023/12/11 09:42:50;;;;;;;12.48;5.18;;;-5.20;99.90;;;;;;4936270;29;20268;-94
2023/12/11 09:45:21;;;;;;;15.65;6.10;;;-5.10;99.90;;;;;;4936480;29;20193;-93
2023/12/11 09:47:52;;;;;;;14.60;5.40;;;-5.10;99.90;;;;;;4920351;29;20694;-93
2023/12/11 09:50:38;;;;;;;13.93;5.38;;;-5.10;99.90;;;;;;4922367;29;20272;-93
2023/12/11 09:53:06;;;;;;;12.63;5.65;;;-5.00;99.90;;;;;;4935537;29;20213;-93
2023/12/11 09:55:34;;;;;;;17.15;5.40;;;-5.10;99.90;;;;;;4919857;29;20280;-93
2023/12/11 09:58:06;;;;;;;11.82;4.32;;;-5.10;99.90;;;;;;4920501;29;20201;-92
2023/12/11 10:00:36;;;;;;;15.48;5.93;;;-5.00;99.90;;;;;;4951844;29;20186;-93
2023/12/11 10:03:08;;;;;;;15.13;5.22;;;-5.00;99.90;;;;;;4935521;29;20201;-94
2023/12/11 10:05:41;;;;;;;12.95;5.57;;;-5.00;99.90;;;;;;4919858;29;20288;-93
2023/12/11 10:08:10;;;;;;;13.23;4.88;;;-5.00;99.90;;;;;;4919682;29;20281;-93
2023/12/11 10:10:40;;;;;;;13.73;5.32;;;-5.00;99.90;;;;;;4920006;29;20185;-93
2023/12/11 10:13:22;;;;;;;11.95;4.60;;;-4.90;99.90;;;;;;4950724;29;20182;-94
2023/12/11 10:15:53;;;;;;;11.77;4.20;;;-4.90;99.90;;;;;;4919817;29;20174;-93
2023/12/11 10:18:22;;;;;;;9.27;4.50;;;-4.90;99.90;;;;;;4951081;28;20632;-93
2023/12/11 10:20:54;;;;;;;12.13;4.18;;;-4.90;99.90;;;;;;4919386;29;20193;-94
2023/12/11 10:23:24;;;;;;;11.95;4.38;;;-4.90;99.90;;;;;;4919746;29;20197;-94
2023/12/11 10:26:05;;;;;;;12.25;4.47;;;-4.90;99.90;;;;;;4935170;29;20292;-95
2023/12/11 10:28:34;;;;;;;15.15;5.10;;;-4.90;99.90;;;;;;4935947;29;20193;-93
2023/12/11 10:31:04;;;;;;;11.50;4.53;;;-4.90;99.90;;;;;;4935223;29;20197;-92
2023/12/11 10:33:33;;;;;;;13.10;4.82;;;-4.90;99.90;;;;;;4919142;29;20201;-93
2023/12/11 10:36:11;;;;;;;11.70;4.60;;;-4.90;99.90;;;;;;4934998;29;20201;-93
2023/12/11 10:38:40;;;;;;;11.15;4.45;;;-4.90;99.90;;;;;;4918797;29;20283;-94
2023/12/11 10:41:24;;;;;;;15.30;4.22;;;-4.80;99.90;;;;;;4918021;29;20257;-94
2023/12/11 10:43:55;;;;;;;9.93;4.05;;;-4.80;99.90;;;;;;4934644;29;20208;-94
2023/12/11 10:46:45;;;;;;;10.77;4.30;;;-4.90;99.90;;;;;;4921887;29;20702;-93
2023/12/11 10:49:17;;;;;;;14.05;4.57;;;-4.80;99.90;;;;;;4935001;29;20597;-94
2023/12/11 10:51:48;;;;;;;12.88;3.70;;;-4.80;99.90;;;;;;4919091;29;20276;-94
2023/12/11 10:54:21;;;;;;;10.73;5.05;;;-4.80;99.90;;;;;;4934495;29;20260;-93
2023/12/11 10:56:53;;;;;;;10.73;4.25;;;-4.80;99.90;;;;;;4918579;29;20194;-94
2023/12/11 10:59:23;;;;;;;14.38;5.30;;;-4.70;99.90;;;;;;4949912;29;20703;-93
2023/12/11 11:01:56;;;;;;;10.38;3.65;;;-4.80;99.90;;;;;;4929658;29;20271;-94
2023/12/11 11:04:30;;;;;;;13.00;3.88;;;-4.70;99.90;;;;;;4918819;29;20181;-93
2023/12/11 11:07:06;;;;;;;10.63;4.25;;;-4.70;99.90;;;;;;4934368;29;20422;-94
2023/12/11 11:09:49;;;;;;;10.02;4.28;;;-4.70;99.90;;;;;;4934561;29;20232;-94
2023/12/11 11:12:31;;;;;;;9.65;3.55;;;-4.60;99.90;;;;;;4949666;29;20544;-93
2023/12/11 11:14:59;;;;;;;9.23;3.90;;;-4.60;99.90;;;;;;4934457;29;20189;-94
2023/12/11 11:17:59;;;;;;;9.30;3.78;;;-4.70;99.90;;;;;;4949975;29;20193;-94
2023/12/11 11:20:31;;;;;;;12.00;4.38;;;-4.70;99.90;;;;;;4934813;29;20193;-93
2023/12/11 11:23:32;;;;;;;12.77;4.00;;;-4.60;99.90;;;;;;4934491;29;20199;-93
2023/12/11 11:26:00;;;;;;;10.55;4.10;;;-4.60;99.90;;;;;;4932397;29;20224;-93
2023/12/11 11:28:41;;;;;;;8.30;3.78;;;-4.60;99.90;;;;;;4934218;29;20221;-92
2023/12/11 11:31:13;;;;;;;12.40;3.92;;;-4.60;99.90;;;;;;4950236;29;20182;-93
2023/12/11 11:33:56;;;;;;;9.50;3.50;;;-4.60;99.90;;;;;;4934828;29;20268;-94
2023/12/11 11:36:47;;;;;;;8.07;3.75;;;-4.60;99.90;;;;;;4934232;29;20244;-93
2023/12/11 11:39:17;;;;;;;11.55;4.47;;;-4.60;99.90;;;;;;4933654;29;20185;-94
2023/12/11 11:41:45;;;;;;;11.55;4.13;;;-4.50;99.90;;;;;;4934144;29;20260;-93
2023/12/11 11:44:15;;;;;;;9.68;4.30;;;-4.50;99.90;;;;;;4949926;29;20269;-94
2023/12/11 11:46:57;;;;;;;8.68;4.30;;;-4.50;99.90;;;;;;4934056;29;20288;-92
2023/12/11 11:49:36;;;;;;;8.68;4.10;;;-4.50;99.90;;;;;;4927362;28;20747;-93
2023/12/11 11:52:09;;;;;;;9.27;4.38;;;-4.50;99.90;;;;;;4972119;28;20184;-92
2023/12/11 11:54:39;;;;;;;10.07;4.28;;;-4.50;99.90;;;;;;4956232;28;20751;-94
2023/12/11 11:57:08;;;;;;;8.85;4.07;;;-4.40;99.90;;;;;;4956063;28;20299;-93
2023/12/11 11:59:43;;;;;;;10.75;3.90;;;-4.40;99.90;;;;;;4970979;28;20192;-94
2023/12/11 12:02:20;;;;;;;10.40;3.70;;;-4.40;99.90;;;;;;4971314;28;20184;-93
2023/12/11 12:04:50;;;;;;;11.45;4.28;;;-4.40;99.90;;;;;;4972008;28;20180;-93
2023/12/11 12:07:20;;;;;;;8.77;3.53;;;-4.50;99.90;;;;;;4971601;28;20303;-94
2023/12/11 12:09:52;;;;;;;10.82;4.22;;;-4.40;99.90;;;;;;4970969;28;20786;-94
2023/12/11 12:12:23;;;;;;;9.48;3.90;;;-4.40;99.90;;;;;;4972136;28;20203;-93
2023/12/11 12:15:04;;;;;;;10.60;4.15;;;-4.40;99.90;;;;;;4971536;28;20275;-92
2023/12/11 12:17:32;;;;;;;7.97;3.90;;;-4.40;99.90;;;;;;4971210;28;20250;-93
2023/12/11 12:20:16;;;;;;;12.45;4.35;;;-4.40;99.90;;;;;;4971883;28;20279;-93
2023/12/11 12:22:59;;;;;;;9.25;3.80;;;-4.30;99.90;;;;;;4972074;28;20206;-93
2023/12/11 12:25:29;;;;;;;9.15;3.70;;;-4.30;99.90;;;;;;4971061;28;20195;-93
2023/12/11 12:28:11;;;;;;;8.85;4.00;;;-4.40;99.90;;;;;;4970544;28;20204;-94
2023/12/11 12:30:40;;;;;;;10.93;4.38;;;-4.30;99.90;;;;;;4955073;28;20200;-93
2023/12/11 12:33:11;;;;;;;9.68;4.53;;;-4.30;99.90;;;;;;4966980;28;20208;-93
2023/12/11 12:35:41;;;;;;;1059.43;507.65;;;-4.30;99.90;;;;;;4935927;29;20619;-95
2023/12/11 12:38:08;;;;;;;258.08;140.27;;;-4.30;99.90;;;;;;4952037;28;20607;-93
2023/12/11 12:40:36;;;;;;;172.52;147.50;;;-4.30;99.90;;;;;;4968676;28;20291;-94
2023/12/11 12:43:13;;;;;;;42.88;33.83;;;-4.30;99.90;;;;;;4952885;29;20260;-92
2023/12/11 12:45:43;;;;;;;34.65;27.15;;;-4.30;99.90;;;;;;4952647;28;20197;-93